• Join FlightAware (Why Join?)
  • Login
  • US Flag 
01:37AM EDT


 

Airport Tracker/Info


-or-


 

Live Flight TrackerFlight Track Log ✈ SWA607 ✈ 27-Apr-2013 ✈ KSMF - KPHX

Flight Track Log - Related Links

Times and Time Zones

All times are in EDT time to prevent confusion due to time zone crossing. See the SWA607 flight status page for this flight to view local times or setup timezone preferences in your user account.

Time Position Orientation Groundspeed Altitude Reporting Facility
EDT Latitude Longitude Course Direction KTS MPH feet Rate Location/Type
12:54PM 38.5833 -121.5000 134° Southeast 261 300 4,500  Level Northern Cal TRACON
12:55PM 38.5667 -121.4167 104° East 292 336 7,800 3,180 Climbing Northern Cal TRACON
12:56PM 38.5511 -121.3383 104° East 286 329 10,100 2,400 Climbing Oakland Center
12:57PM 38.5364 -121.2272 100° East 316 364 12,100 2,160 Climbing Oakland Center
12:58PM 38.5197 -121.1094 100° East 336 387 14,600 2,340 Climbing Oakland Center
12:59PM 38.5028 -120.9867 100° East 350 403 16,900 1,920 Climbing Oakland Center
01:00PM 38.4842 -120.8553 100° East 371 427 18,600 1,980 Climbing Oakland Center
01:01PM 38.4653 -120.7214 100° East 383 441 21,000 2,100 Climbing Oakland Center
01:02PM 38.4458 -120.5889 101° East 381 438 22,900 1,800 Climbing Oakland Center
01:03PM 38.4261 -120.4508 100° East 393 452 24,800 1,800 Climbing Oakland Center
01:04PM 38.4056 -120.3114 101° East 397 457 26,700 1,920 Climbing Oakland Center
01:05PM 38.3800 -120.1422 101° East 404 465 28,800 1,680 Climbing Oakland Center
01:06PM 38.3606 -119.9989 100° East 408 470 30,200 1,320 Climbing Oakland Center
01:07PM 38.3389 -119.8522 101° East 417 480 31,600 1,500 Climbing Oakland Center
01:08PM 38.3164 -119.7069 101° East 419 482 33,300 1,440 Climbing Oakland Center
01:09PM 38.2942 -119.5619 101° East 417 480 34,600 780 Climbing Oakland Center
01:10PM 38.2708 -119.4114 101° East 417 480 35,000 180 Climbing Oakland Center
01:11PM 38.2481 -119.2664 101° East 419 482 35,000  Level Oakland Center
01:12PM 38.2250 -119.1192 101° East 424 488 35,000  Level Oakland Center
01:13PM 38.2019 -118.9733 101° East 423 487 35,000  Level Oakland Center
01:14PM 38.1786 -118.8269 101° East 426 490 35,000  Level Oakland Center
01:15PM 38.1547 -118.6811 102° East 424 488 35,000  Level Oakland Center
01:16PM 38.1281 -118.5136 101° East 422 486 35,000  Level Oakland Center
01:17PM 38.1033 -118.3669 102° East 424 488 35,000  Level Oakland Center
01:18PM 38.0797 -118.2194 101° East 428 493 35,000 60 Level Oakland Center
01:19PM 38.0550 -118.0731 102° East 425 489 35,200 960 Climbing Oakland Center
01:20PM 38.0303 -117.9317 102° East 414 476 37,000 840 Climbing Oakland Center
01:21PM 38.0064 -117.7953 102° East 404 465 37,000  Level Oakland Center
01:22PM 37.9175 -117.6972 139° Southeast 435 501 37,000  Level Oakland Center
01:23PM 37.7992 -117.5947 146° Southeast 436 502 37,000  Level Oakland Center
01:24PM 37.6978 -117.5072 146° Southeast 444 511 37,000  Level Oakland Center
01:25PM 37.5939 -117.4189 146° Southeast 452 520 37,000  Level Oakland Center
01:26PM 37.4906 -117.3311 146° Southeast 451 519 37,000  Level Oakland Center
01:27PM 37.3864 -117.2436 146° Southeast 451 519 37,000  Level Oakland Center
01:28PM 37.2831 -117.1536 145° Southeast 452 520 37,000  Level Oakland Center
01:29PM 37.1783 -117.0642 146° Southeast 456 525 37,000  Level Oakland Center
01:30PM 37.0744 -116.9781 147° Southeast 449 517 37,000  Level Oakland Center
01:31PM 36.9742 -116.8925 146° Southeast 438 504 37,000  Level Oakland Center
01:32PM 36.8511 -116.7889 146° Southeast 443 510 37,000  Level Oakland Center
01:34PM 36.7717 -116.6789 132° Southeast 443 510 37,000  Level Oakland Center
01:35PM 36.7164 -116.5475 118° Southeast 433 498 37,000  Level Oakland Center
01:35PM 36.7061 -116.5169 113° Southeast 434 499 37,000  Level Los Angeles Center
01:36PM 36.6397 -116.3589 118° Southeast 431 496 37,000  Level Los Angeles Center
01:37PM 36.5842 -116.2258 117° Southeast 433 498 37,000  Level Los Angeles Center
01:38PM 36.5283 -116.0953 118° Southeast 429 494 37,000  Level Los Angeles Center
01:39PM 36.4606 -115.9353 118° Southeast 434 499 37,000  Level Los Angeles Center
01:40PM 36.4067 -115.8108 118° Southeast 432 497 37,000  Level Los Angeles Center
01:41PM 36.3503 -115.6808 118° Southeast 431 496 37,000  Level Los Angeles Center
01:42PM 36.2881 -115.5325 117° Southeast 434 499 37,000  Level Los Angeles Center
01:43PM 36.2314 -115.4003 118° Southeast 436 502 37,000  Level Los Angeles Center
01:44PM 36.1750 -115.2700 118° Southeast 432 497 37,000  Level Los Angeles Center
01:45PM 36.1167 -115.1375 119° Southeast 438 504 37,000  Level Los Angeles Center
01:46PM 36.0592 -115.0072 119° Southeast 434 499 37,000  Level Los Angeles Center
01:47PM 35.9889 -114.8511 119° Southeast 434 499 37,000  Level Los Angeles Center
01:48PM 35.9247 -114.7261 122° Southeast 433 498 37,000  Level Los Angeles Center
01:49PM 35.8583 -114.6008 123° Southeast 435 501 37,000  Level Los Angeles Center
01:50PM 35.7917 -114.4758 123° Southeast 436 502 37,000  Level Los Angeles Center
01:52PM 35.7258 -114.3503 123° Southeast 435 501 37,000  Level Los Angeles Center
01:53PM 35.6550 -114.2189 124° Southeast 438 504 37,000  Level Los Angeles Center
01:54PM 35.5881 -114.0950 124° Southeast 437 503 37,000  Level Los Angeles Center
01:55PM 35.5222 -113.9703 123° Southeast 439 505 37,000  Level Los Angeles Center
01:56PM 35.4414 -113.8208 124° Southeast 441 507 37,000  Level Los Angeles Center
01:57PM 35.3744 -113.6964 123° Southeast 441 507 37,000 -1,200 Level Los Angeles Center
01:58PM 35.2933 -113.5483 124° Southeast 439 505 34,300 -2,520 Descending Los Angeles Center
01:59PM 35.2397 -113.4508 124° Southeast 439 505 31,900 -2,580 Descending Los Angeles Center
02:00PM 35.1475 -113.2819 124° Southeast 434 499 29,000 -1,440 Descending Los Angeles Center
02:01PM 35.0836 -113.1672 124° Southeast 419 482 29,000  Level Los Angeles Center
02:01PM 35.0697 -113.1444 127° Southeast 421 484 29,000  Level Albuquerque Center
02:02PM 34.9594 -113.0261 139° Southeast 450 518 29,000  Level Albuquerque Center
02:03PM 34.8644 -112.9281 140° Southeast 455 524 29,000  Level Albuquerque Center
02:04PM 34.7675 -112.8294 140° Southeast 455 524 29,000 -60 Level Albuquerque Center
02:05PM 34.6703 -112.7306 140° Southeast 457 526 28,900 -1,140 Descending Albuquerque Center
02:06PM 34.5764 -112.6325 139° Southeast 453 521 26,700 -2,220 Descending Albuquerque Center
02:07PM 34.4867 -112.5408 140° Southeast 431 496 24,400 -2,520 Descending Albuquerque Center
02:09PM 34.3811 -112.4358 141° Southeast 409 471 21,600 -2,400 Descending Albuquerque Center
02:10PM 34.2997 -112.3522 140° Southeast 387 445 19,500 -2,100 Descending Albuquerque Center
02:11PM 34.2206 -112.2711 140° Southeast 375 432 17,400 -2,160 Descending Albuquerque Center
02:12PM 34.1425 -112.1936 141° Southeast 367 422 15,100 -1,680 Descending Albuquerque Center
02:13PM 34.0647 -112.1386 150° Southeast 332 382 14,000 -1,380 Descending Albuquerque Center
02:14PM 33.9758 -112.1478 185° South 322 371 12,300 -1,620 Descending Albuquerque Center
02:15PM 33.8903 -112.1589 186° South 313 360 10,700 -1,800 Descending Albuquerque Center
02:16PM 33.7908 -112.1808 190° South 305 351 8,700 -1,440 Descending Albuquerque Center
02:17PM 33.7125 -112.1975 190° South 291 335 7,800 -900 Descending Albuquerque Center
02:18PM 33.6436 -112.2111 189° South 257 296 6,900 -960 Descending Albuquerque Center
02:19PM 33.5758 -112.2261 190° South 249 287 5,900 -840 Descending Albuquerque Center
02:20PM 33.5186 -112.2383 190° South 208 239 5,200 -960 Descending Albuquerque Center
02:21PM 33.4772 -112.2086 149° Southeast 204 235 4,000 -1,080 Descending Albuquerque Center
02:22PM 33.4425 -112.1433 123° Southeast 197 227 3,000 -1,020 Descending Albuquerque Center
02:23PM 33.4406 -112.0831 92° East 182 209 2,000 -840 Descending Albuquerque Center
02:24PM 33.4406 -112.0361 90° East 148 170 1,300 -720 Descending Albuquerque Center
02:26PM 33.4343 -112.0116 107° East  Level Estimated